Palm Shores, Florida
Current Conditions -  °F | °C
As of 1:58 PM on Thursday 18 Dec 2014 (Local Time) from KCOF Reporting Station
Clear Clear  
Wind Chill: 68°   Ceiling: Unl
Heat Index: 68°   Visibility: 10mi
Dew Point: 48°   Wind: 6mph
Humidity: 49%   Direction: 330°NNW
Pressure: 30.11"   Gusts: NA
Location:  28.2259°N, 80.6951°W
Report Text: KCOF 181858Z AUTO 33005KT 10SM CLR 20/09 A3011 RMK AO2 SLP201 T02000091
Loading
Personal Weather Stations






























Interactive Weather Map New forecast layout! Learn more

10-Day Weather Forecast

Advertisements
Track Severe Weather on mobile